createdAt,value
2018-12-20T00:00:20.060Z,97967.48
2018-12-20T00:02:49.535Z,97972.34
2018-12-20T00:05:18.994Z,97969.38
2018-12-20T00:07:49.209Z,97969.64
2018-12-20T00:10:18.587Z,97968.59
2018-12-20T00:12:48.606Z,97976.33
2018-12-20T00:15:18.171Z,97970.44
2018-12-20T00:17:51.912Z,97973.92
2018-12-20T00:20:23.036Z,97976.33
2018-12-20T00:22:53.256Z,97981.13
2018-12-20T00:25:22.739Z,97988.36
2018-12-20T00:27:52.355Z,97977.12
2018-12-20T00:30:21.959Z,97977.66
2018-12-20T00:32:51.291Z,97978.46
2018-12-20T00:35:20.985Z,97975.47
2018-12-20T00:37:50.571Z,97981.84
2018-12-20T00:40:19.942Z,97978.88
2018-12-20T00:42:49.955Z,97977.82
2018-12-20T00:45:19.330Z,97979.96
2018-12-20T00:47:49.706Z,97986.92
2018-12-20T00:50:20.039Z,97985.84
2018-12-20T00:52:49.858Z,97999.22
2018-12-20T00:55:19.288Z,97997.07
2018-12-20T00:57:48.850Z,97994.38
2018-12-20T01:00:19.173Z,97997.34
2018-12-20T01:02:55.056Z,98000.80
2018-12-20T01:05:19.994Z,97995.43
2018-12-20T01:07:49.567Z,97998.08
2018-12-20T01:10:19.293Z,98003.93
2018-12-20T01:12:49.156Z,98006.59
2018-12-20T01:15:18.931Z,98010.81
2018-12-20T01:17:48.283Z,98008.11
2018-12-20T01:20:17.705Z,98010.19
2018-12-20T01:22:47.450Z,98013.89
2018-12-20T01:25:16.892Z,98017.00
2018-12-20T01:27:46.850Z,98018.58
2018-12-20T01:30:16.910Z,98013.75
2018-12-20T01:32:46.628Z,98020.12
2018-12-20T01:35:16.302Z,98020.59
2018-12-20T01:37:45.640Z,98030.40
2018-12-20T01:40:15.876Z,98030.34
2018-12-20T01:42:45.165Z,98022.52
2018-12-20T01:45:15.850Z,98031.09
2018-12-20T01:47:45.359Z,98036.36
2018-12-20T01:50:14.965Z,98030.14
2018-12-20T01:52:44.739Z,98043.69
2018-12-20T01:55:14.635Z,98036.72
2018-12-20T01:57:44.425Z,98038.80
2018-12-20T02:00:14.594Z,98037.95
2018-12-20T02:02:44.273Z,98039.80
2018-12-20T02:05:13.854Z,98038.20
2018-12-20T02:07:43.296Z,98035.20
2018-12-20T02:10:13.341Z,98034.98
2018-12-20T02:12:43.139Z,98037.91
2018-12-20T02:15:12.773Z,98041.06
2018-12-20T02:17:42.312Z,98043.14
2018-12-20T02:20:11.890Z,98039.70
2018-12-20T02:22:41.281Z,98038.25
2018-12-20T02:25:11.523Z,98032.39
2018-12-20T02:27:41.618Z,98042.55
2018-12-20T02:30:11.924Z,98035.91
2018-12-20T02:32:41.347Z,98035.91
2018-12-20T02:35:11.077Z,98039.10
2018-12-20T02:37:40.671Z,98035.66
2018-12-20T02:40:10.102Z,98038.28
2018-12-20T02:42:39.412Z,98040.06
2018-12-20T02:45:10.943Z,98033.58
2018-12-20T02:47:41.358Z,98034.31
2018-12-20T02:50:12.318Z,98037.75
2018-12-20T02:52:42.397Z,98042.75
2018-12-20T02:55:11.988Z,98040.05
2018-12-20T02:57:41.593Z,98043.71
2018-12-20T03:00:11.644Z,98039.41
2018-12-20T03:02:41.574Z,98035.92
2018-12-20T03:05:11.080Z,98040.00
2018-12-20T03:07:40.989Z,98034.67
2018-12-20T03:10:10.314Z,98029.59
2018-12-20T03:12:39.691Z,98029.59
2018-12-20T03:15:09.814Z,98025.86
2018-12-20T03:17:39.430Z,98027.15
2018-12-20T03:20:08.995Z,98032.22
2018-12-20T03:22:38.541Z,98038.89
2018-12-20T03:25:08.581Z,98033.94
2018-12-20T03:27:38.678Z,98031.16
2018-12-20T03:30:08.935Z,98030.52
2018-12-20T03:32:38.890Z,98034.45
2018-12-20T03:35:09.452Z,98030.08
2018-12-20T03:37:39.539Z,98036.69
2018-12-20T03:40:09.732Z,98035.34
2018-12-20T03:42:39.640Z,98031.59
2018-12-20T03:45:09.534Z,98035.49
2018-12-20T03:47:39.244Z,98036.22
2018-12-20T03:50:09.434Z,98030.58
2018-12-20T03:52:38.797Z,98032.11
2018-12-20T03:55:08.513Z,98029.80
2018-12-20T03:57:38.970Z,98028.89
2018-12-20T04:00:08.863Z,98033.14
2018-12-20T04:02:38.602Z,98037.19
2018-12-20T04:05:08.808Z,98036.17
2018-12-20T04:07:38.254Z,98041.08
2018-12-20T04:10:08.165Z,98032.88
2018-12-20T04:12:38.388Z,98036.47
2018-12-20T04:15:09.141Z,98046.16
2018-12-20T04:17:38.525Z,98051.69
2018-12-20T04:20:07.908Z,98047.69
2018-12-20T04:22:37.293Z,98044.98
2018-12-20T04:25:07.213Z,98047.69
2018-12-20T04:27:41.648Z,98049.16
2018-12-20T04:30:11.526Z,98053.67
2018-12-20T04:32:40.874Z,98057.77
2018-12-20T04:35:10.342Z,98051.16
2018-12-20T04:37:39.633Z,98056.27
2018-12-20T04:40:10.358Z,98057.31
2018-12-20T04:42:39.748Z,98064.78
2018-12-20T04:45:09.353Z,98062.95
2018-12-20T04:47:38.774Z,98058.39
2018-12-20T04:50:08.384Z,98063.66
2018-12-20T04:54:02.751Z,98067.97
2018-12-20T04:56:32.313Z,98070.88
2018-12-20T04:59:02.016Z,98066.21
2018-12-20T05:01:32.001Z,98074.77
2018-12-20T05:04:02.182Z,98075.33
2018-12-20T05:06:31.569Z,98077.70
2018-12-20T05:09:00.960Z,98077.13
2018-12-20T05:11:31.064Z,98085.34
2018-12-20T05:14:00.640Z,98084.57
2018-12-20T05:16:30.424Z,98082.77
2018-12-20T05:19:00.212Z,98095.02
2018-12-20T05:21:29.881Z,98093.69
2018-12-20T05:23:59.749Z,98086.30
2018-12-20T05:26:29.321Z,98089.88
2018-12-20T05:28:58.934Z,98091.52
2018-12-20T05:31:28.465Z,98094.75
2018-12-20T05:33:58.126Z,98094.54
2018-12-20T05:36:27.882Z,98092.21
2018-12-20T05:38:58.051Z,98093.05
2018-12-20T05:41:27.713Z,98104.22
2018-12-20T05:43:57.290Z,98101.25
2018-12-20T05:46:26.794Z,98103.39
2018-12-20T05:48:56.206Z,98104.69
2018-12-20T05:51:26.280Z,98101.86
2018-12-20T05:53:56.323Z,98104.83
2018-12-20T05:56:26.536Z,98114.73
2018-12-20T05:58:55.945Z,98105.17
2018-12-20T06:01:25.234Z,98104.36
2018-12-20T06:03:55.478Z,98114.73
2018-12-20T06:06:25.089Z,98107.94
2018-12-20T06:08:54.566Z,98106.13
2018-12-20T06:11:24.903Z,98106.73
2018-12-20T06:13:55.240Z,98113.70
2018-12-20T06:16:24.629Z,98113.92
2018-12-20T06:18:54.949Z,98110.27
2018-12-20T06:21:25.655Z,98114.81
2018-12-20T06:23:55.003Z,98112.53
2018-12-20T06:26:25.170Z,98120.98
2018-12-20T06:28:54.404Z,98120.42
2018-12-20T06:31:23.680Z,98122.53
2018-12-20T06:33:52.860Z,98120.11
2018-12-20T06:36:22.555Z,98122.01
2018-12-20T06:38:52.273Z,98129.80
2018-12-20T06:41:23.528Z,98131.70
2018-12-20T06:43:53.203Z,98130.36
2018-12-20T06:46:23.660Z,98137.16
2018-12-20T06:48:52.945Z,98136.68
2018-12-20T06:51:22.333Z,98140.58
2018-12-20T06:53:52.310Z,98143.55
2018-12-20T06:56:22.491Z,98147.25
2018-12-20T06:58:52.705Z,98144.06
2018-12-20T07:01:22.873Z,98145.41
2018-12-20T07:03:53.406Z,98147.56
2018-12-20T07:06:23.048Z,98144.11
2018-12-20T07:08:52.710Z,98145.52
2018-12-20T07:11:22.724Z,98147.34
2018-12-20T07:13:53.019Z,98142.59
2018-12-20T07:16:29.310Z,98141.44
2018-12-20T07:18:53.927Z,98147.30
2018-12-20T07:21:23.575Z,98147.70
2018-12-20T07:23:52.935Z,98151.88
2018-12-20T07:26:22.330Z,98146.49
2018-12-20T07:28:53.663Z,98139.05
2018-12-20T07:31:23.487Z,98139.69
2018-12-20T07:33:52.906Z,98142.09
2018-12-20T07:36:22.380Z,98142.54
2018-12-20T07:38:51.983Z,98147.95
2018-12-20T07:41:22.174Z,98144.91
2018-12-20T07:43:52.440Z,98146.02
2018-12-20T07:46:21.907Z,98140.47
2018-12-20T07:48:51.815Z,98147.52
2018-12-20T07:51:21.161Z,98144.33
2018-12-20T07:53:50.374Z,98142.97
2018-12-20T07:56:19.946Z,98144.89
2018-12-20T07:58:50.879Z,98153.72
2018-12-20T08:01:21.002Z,98158.24
2018-12-20T08:03:50.966Z,98158.83
2018-12-20T08:06:21.639Z,98161.05
2018-12-20T08:08:51.610Z,98158.94
2018-12-20T08:11:20.921Z,98169.95
2018-12-20T08:13:50.771Z,98176.70
2018-12-20T08:16:21.245Z,98174.58
2018-12-20T08:18:51.259Z,98184.27
2018-12-20T08:21:21.190Z,98187.78
2018-12-20T08:23:52.607Z,98189.67
2018-12-20T08:26:22.075Z,98195.87
2018-12-20T08:28:52.485Z,98196.20
2018-12-20T08:31:23.326Z,98195.70
2018-12-20T08:33:53.586Z,98201.05
2018-12-20T08:36:23.656Z,98201.61
2018-12-20T08:38:54.944Z,98204.16
2018-12-20T08:41:25.039Z,98209.30
2018-12-20T08:43:55.480Z,98211.02
2018-12-20T08:46:25.527Z,98223.45
2018-12-20T08:48:56.046Z,98223.01
2018-12-20T08:51:25.951Z,98229.27
2018-12-20T08:53:55.790Z,98230.73
2018-12-20T08:56:25.526Z,98231.61
2018-12-20T08:58:55.160Z,98231.15
2018-12-20T09:01:24.840Z,98231.74
2018-12-20T09:03:54.911Z,98236.12
2018-12-20T09:06:24.472Z,98235.61
2018-12-20T09:08:54.511Z,98246.36
2018-12-20T09:11:25.127Z,98242.11
2018-12-20T09:13:55.000Z,98245.95
2018-12-20T09:19:42.590Z,98253.78
2018-12-20T09:22:13.145Z,98248.38
2018-12-20T09:24:42.975Z,98242.44
2018-12-20T09:27:12.661Z,98242.28
2018-12-20T09:29:44.951Z,98239.64
2018-12-20T09:32:15.607Z,98245.75
2018-12-20T09:34:45.085Z,98236.50
2018-12-20T09:37:15.210Z,98242.27
2018-12-20T09:39:44.831Z,98244.95
2018-12-20T09:42:14.370Z,98239.20
2018-12-20T09:44:44.947Z,98241.66
2018-12-20T09:47:20.046Z,98231.10
2018-12-20T09:49:49.966Z,98235.90
2018-12-20T09:52:20.370Z,98233.53
2018-12-20T09:54:49.740Z,98235.60
2018-12-20T09:57:19.722Z,98228.47
2018-12-20T09:59:50.008Z,98231.49
2018-12-20T10:02:19.510Z,98231.78
2018-12-20T10:04:49.329Z,98241.59
2018-12-20T10:07:20.515Z,98229.65
2018-12-20T10:09:50.697Z,98226.78
2018-12-20T10:12:19.943Z,98235.07
2018-12-20T10:14:50.146Z,98231.09
2018-12-20T10:17:20.100Z,98242.56
2018-12-20T10:19:50.545Z,98229.72
2018-12-20T10:22:20.041Z,98211.20
2018-12-20T10:24:49.951Z,98214.88
2018-12-20T10:27:19.242Z,98210.29
2018-12-20T10:29:49.260Z,98207.72
2018-12-20T10:32:19.505Z,98203.61
2018-12-20T10:34:48.956Z,98203.25
2018-12-20T10:37:18.955Z,98201.68
2018-12-20T10:39:48.490Z,98202.80
2018-12-20T10:42:17.937Z,98193.37
2018-12-20T10:44:47.526Z,98202.42
2018-12-20T10:47:28.847Z,98192.33
2018-12-20T10:49:53.783Z,98191.67
2018-12-20T10:52:23.227Z,98189.03
2018-12-20T10:54:52.663Z,98186.84
2018-12-20T10:57:22.730Z,98188.27
2018-12-20T10:59:52.836Z,98178.94
2018-12-20T11:02:27.618Z,98178.55
2018-12-20T11:05:06.258Z,98182.88
2018-12-20T11:07:41.302Z,98174.63
2018-12-20T11:10:16.081Z,98184.06
2018-12-20T11:12:49.236Z,98170.67
2018-12-20T11:15:27.432Z,98168.81
2018-12-20T11:17:57.361Z,98183.05
2018-12-20T11:20:27.762Z,98179.98
2018-12-20T11:22:57.676Z,98180.37
2018-12-20T11:25:27.557Z,98181.73
2018-12-20T11:27:57.341Z,98185.31
2018-12-20T11:30:27.802Z,98180.80
2018-12-20T11:32:59.697Z,98181.11
2018-12-20T11:35:29.555Z,98174.52
2018-12-20T11:37:59.981Z,98171.28
2018-12-20T11:40:31.085Z,98172.36
2018-12-20T11:43:01.270Z,98165.62
2018-12-20T11:45:32.577Z,98160.20
2018-12-20T11:48:02.752Z,98159.62
2018-12-20T11:50:32.965Z,98152.70
2018-12-20T11:53:03.237Z,98154.11
2018-12-20T11:55:33.272Z,98148.52
2018-12-20T11:58:04.671Z,98149.53
2018-12-20T12:00:37.387Z,98145.56
2018-12-20T12:03:07.636Z,98145.48
2018-12-20T12:05:37.776Z,98143.49
2018-12-20T12:08:07.276Z,98142.77
2018-12-20T12:10:36.917Z,98137.38
2018-12-20T12:13:07.488Z,98135.11
2018-12-20T12:15:38.055Z,98133.36
2018-12-20T12:18:07.800Z,98131.97
2018-12-20T12:20:37.242Z,98128.03
2018-12-20T12:23:08.177Z,98128.15
2018-12-20T12:25:37.671Z,98132.16
2018-12-20T12:28:08.397Z,98138.44
2018-12-20T12:30:37.923Z,98136.45
2018-12-20T12:33:07.394Z,98141.29
2018-12-20T12:35:36.843Z,98140.13
2018-12-20T12:38:07.778Z,98151.19
2018-12-20T12:40:37.178Z,98142.81
2018-12-20T12:43:07.025Z,98143.74
2018-12-20T12:45:37.047Z,98146.91
2018-12-20T12:48:07.379Z,98150.86
2018-12-20T12:50:36.648Z,98146.77
2018-12-20T12:53:06.121Z,98145.71
2018-12-20T12:55:35.822Z,98144.81
2018-12-20T12:58:05.272Z,98147.53
2018-12-20T13:00:35.350Z,98139.78
2018-12-20T13:03:05.548Z,98138.06
2018-12-20T13:05:35.132Z,98147.51
2018-12-20T13:08:04.990Z,98145.33
2018-12-20T13:10:35.248Z,98148.34
2018-12-20T13:13:05.537Z,98148.69
2018-12-20T13:15:35.227Z,98149.95
2018-12-20T13:18:13.625Z,98150.36
2018-12-20T13:20:37.045Z,98157.91
2018-12-20T13:23:06.404Z,98157.37
2018-12-20T13:25:36.391Z,98153.62
2018-12-20T13:28:06.611Z,98156.83
2018-12-20T13:30:36.247Z,98160.45
2018-12-20T13:33:05.969Z,98159.02
2018-12-20T13:35:35.400Z,98166.13
2018-12-20T13:38:05.332Z,98167.00
2018-12-20T13:40:35.602Z,98163.15
2018-12-20T13:43:05.301Z,98163.79
2018-12-20T13:45:35.927Z,98166.45
2018-12-20T13:48:05.353Z,98170.59
2018-12-20T13:50:35.402Z,98170.75
2018-12-20T13:53:04.743Z,98161.63
2018-12-20T13:55:34.322Z,98169.26
2018-12-20T13:58:04.000Z,98163.05
2018-12-20T14:00:33.319Z,98162.86
2018-12-20T14:03:03.427Z,98174.36
2018-12-20T14:05:33.607Z,98172.02
2018-12-20T14:08:03.757Z,98181.98
2018-12-20T14:10:33.368Z,98181.11
2018-12-20T14:13:03.427Z,98188.84
2018-12-20T14:15:33.721Z,98197.11
2018-12-20T14:18:03.788Z,98195.33
2018-12-20T14:20:33.543Z,98199.63
2018-12-20T14:23:02.952Z,98199.78
2018-12-20T14:25:33.253Z,98204.80
2018-12-20T14:28:02.617Z,98209.25
2018-12-20T14:30:32.303Z,98201.40
2018-12-20T14:33:02.295Z,98212.05
2018-12-20T14:35:32.356Z,98212.93
2018-12-20T14:38:03.754Z,98219.53
2018-12-20T14:40:33.729Z,98221.67
2018-12-20T14:43:04.674Z,98221.41
2018-12-20T14:45:34.674Z,98223.56
2018-12-20T14:48:07.171Z,98224.67
2018-12-20T14:50:37.687Z,98220.36
2018-12-20T14:53:07.648Z,98215.84
2018-12-20T14:55:37.712Z,98225.87
2018-12-20T14:58:07.847Z,98220.18
2018-12-20T15:00:37.841Z,98218.61
2018-12-20T15:03:08.526Z,98224.80
2018-12-20T15:05:38.631Z,98220.48
2018-12-20T15:08:08.810Z,98218.39
2018-12-20T15:10:39.077Z,98229.72
2018-12-20T15:13:09.377Z,98223.89
2018-12-20T15:15:39.663Z,98223.39
2018-12-20T15:18:09.583Z,98216.13
2018-12-20T15:20:40.734Z,98218.58
2018-12-20T15:23:10.766Z,98221.59
2018-12-20T15:25:40.853Z,98216.27
2018-12-20T15:28:13.017Z,98232.70
2018-12-20T15:30:43.427Z,98227.36
2018-12-20T15:33:13.721Z,98231.69
2018-12-20T15:35:43.906Z,98238.98
2018-12-20T15:38:14.072Z,98236.31
2018-12-20T15:40:45.151Z,98241.16
2018-12-20T15:43:15.428Z,98236.05
2018-12-20T15:45:45.766Z,98241.97
2018-12-20T15:48:16.972Z,98244.40
2018-12-20T15:50:47.917Z,98248.66
2018-12-20T15:53:18.328Z,98250.98
2018-12-20T15:55:48.434Z,98243.77
2018-12-20T15:58:20.079Z,98243.40
2018-12-20T16:00:49.858Z,98245.32
2018-12-20T16:03:19.797Z,98243.64
2018-12-20T16:05:49.168Z,98245.74
2018-12-20T16:08:19.007Z,98247.05
2018-12-20T16:10:48.522Z,98245.69
2018-12-20T16:13:18.563Z,98252.61
2018-12-20T16:15:48.205Z,98248.03
2018-12-20T16:18:18.076Z,98251.51
2018-12-20T16:20:49.689Z,98255.72
2018-12-20T16:23:19.493Z,98257.08
2018-12-20T16:25:49.284Z,98263.73
2018-12-20T16:28:18.854Z,98270.53
2018-12-20T16:30:49.134Z,98278.61
2018-12-20T16:33:19.057Z,98274.16
2018-12-20T16:35:48.556Z,98278.76
2018-12-20T16:38:18.717Z,98278.25
2018-12-20T16:40:48.891Z,98278.80
2018-12-20T16:43:18.298Z,98277.20
2018-12-20T16:45:48.092Z,98279.34
2018-12-20T16:48:22.592Z,98280.70
2018-12-20T16:50:52.512Z,98283.10
2018-12-20T16:53:21.853Z,98278.48
2018-12-20T16:55:51.429Z,98282.52
2018-12-20T16:58:21.098Z,98286.21
2018-12-20T17:00:51.227Z,98285.64
2018-12-20T17:03:20.677Z,98285.31
2018-12-20T17:05:50.097Z,98290.03
2018-12-20T17:08:19.512Z,98278.73
2018-12-20T17:10:49.168Z,98278.99
2018-12-20T17:13:19.349Z,98282.20
2018-12-20T17:15:48.969Z,98284.11
2018-12-20T17:18:19.077Z,98281.28
2018-12-20T17:20:49.722Z,98286.69
2018-12-20T17:23:19.206Z,98293.63
2018-12-20T17:25:48.673Z,98295.69
2018-12-20T17:28:18.767Z,98300.44
2018-12-20T17:30:48.407Z,98307.19
2018-12-20T17:33:18.110Z,98314.75
2018-12-20T17:35:47.837Z,98311.03
2018-12-20T17:38:17.452Z,98315.92
2018-12-20T17:40:48.114Z,98323.42
2018-12-20T17:43:17.781Z,98314.05
2018-12-20T17:45:48.930Z,98324.84
2018-12-20T17:48:18.547Z,98320.31
2018-12-20T17:50:48.532Z,98324.34
2018-12-20T17:53:17.957Z,98327.02
2018-12-20T17:55:47.806Z,98340.17
2018-12-20T17:58:18.104Z,98335.05
2018-12-20T18:00:48.286Z,98339.03
2018-12-20T18:03:18.520Z,98344.42
2018-12-20T18:05:48.322Z,98336.95
2018-12-20T18:08:17.983Z,98342.10
2018-12-20T18:10:47.627Z,98343.45
2018-12-20T18:13:17.252Z,98341.91
2018-12-20T18:19:38.948Z,98349.20
2018-12-20T18:22:06.032Z,98361.58
2018-12-20T18:24:35.480Z,98371.80
2018-12-20T18:27:05.252Z,98367.30
2018-12-20T18:29:34.773Z,98364.89
2018-12-20T18:32:04.794Z,98366.00
2018-12-20T18:34:34.378Z,98368.75
2018-12-20T18:37:04.472Z,98363.16
2018-12-20T18:39:34.611Z,98359.98
2018-12-20T18:42:04.612Z,98354.36
2018-12-20T18:44:34.939Z,98356.80
2018-12-20T18:47:04.517Z,98361.34
2018-12-20T18:49:34.062Z,98362.41
2018-12-20T18:52:03.680Z,98355.67
2018-12-20T18:54:33.437Z,98354.08
2018-12-20T18:57:03.061Z,98362.67
2018-12-20T18:59:32.668Z,98357.78
2018-12-20T19:02:03.307Z,98359.72
2018-12-20T19:04:32.702Z,98365.90
2018-12-20T19:07:02.763Z,98357.58
2018-12-20T19:09:32.191Z,98358.94
2018-12-20T19:12:02.038Z,98362.70
2018-12-20T19:14:31.723Z,98363.53
2018-12-20T19:17:01.555Z,98356.55
2018-12-20T19:19:31.821Z,98354.94
2018-12-20T19:22:02.254Z,98370.76
2018-12-20T19:24:33.429Z,98367.78
2018-12-20T19:27:03.337Z,98359.19
2018-12-20T19:29:32.825Z,98363.16
2018-12-20T19:32:02.601Z,98372.53
2018-12-20T19:34:32.928Z,98370.82
2018-12-20T19:37:02.807Z,98374.51
2018-12-20T19:39:32.346Z,98377.42
2018-12-20T19:42:07.263Z,98372.84
2018-12-20T19:44:37.120Z,98379.50
2018-12-20T19:47:06.975Z,98378.66
2018-12-20T19:49:36.436Z,98382.92
2018-12-20T19:52:06.378Z,98381.33
2018-12-20T19:54:36.083Z,98382.35
2018-12-20T19:57:05.688Z,98380.99
2018-12-20T19:59:38.765Z,98378.50
2018-12-20T20:02:06.999Z,98372.28
2018-12-20T20:04:37.391Z,98376.80
2018-12-20T20:07:08.378Z,98364.67
2018-12-20T20:09:38.717Z,98371.06
2018-12-20T20:12:09.080Z,98367.41
2018-12-20T20:14:39.233Z,98369.21
2018-12-20T20:17:08.853Z,98370.98
2018-12-20T20:19:38.512Z,98376.22
2018-12-20T20:22:08.698Z,98371.06
2018-12-20T20:24:38.986Z,98376.87
2018-12-20T20:27:08.852Z,98376.55
2018-12-20T20:29:39.439Z,98372.39
2018-12-20T20:32:09.437Z,98374.52
2018-12-20T20:34:40.625Z,98368.89
2018-12-20T20:37:10.225Z,98371.02
2018-12-20T20:39:39.984Z,98370.16
2018-12-20T20:42:09.519Z,98362.88
2018-12-20T20:44:39.444Z,98370.87
2018-12-20T20:47:09.748Z,98376.19
2018-12-20T20:49:39.743Z,98374.55
2018-12-20T20:52:09.201Z,98378.27
2018-12-20T20:54:39.382Z,98376.89
2018-12-20T20:57:09.204Z,98377.11
2018-12-20T20:59:38.754Z,98371.98
2018-12-20T21:02:09.214Z,98379.92
2018-12-20T21:04:39.045Z,98389.69
2018-12-20T21:07:08.563Z,98384.55
2018-12-20T21:09:38.139Z,98378.73
2018-12-20T21:12:07.759Z,98378.17
2018-12-20T21:14:39.677Z,98374.55
2018-12-20T21:17:09.875Z,98377.95
2018-12-20T21:19:39.291Z,98381.57
2018-12-20T21:22:08.795Z,98386.56
2018-12-20T21:24:38.311Z,98384.52
2018-12-20T21:27:07.821Z,98386.32
2018-12-20T21:29:38.199Z,98393.36
2018-12-20T21:32:07.615Z,98390.69
2018-12-20T21:34:37.183Z,98393.52
2018-12-20T21:37:06.793Z,98384.78
2018-12-20T21:39:36.330Z,98389.56
2018-12-20T21:42:05.764Z,98395.12
2018-12-20T21:44:35.401Z,98400.39
2018-12-20T21:47:05.180Z,98397.52
2018-12-20T21:49:34.673Z,98395.67
2018-12-20T21:52:06.031Z,98391.91
2018-12-20T21:54:36.179Z,98396.19
2018-12-20T21:57:06.403Z,98391.52
2018-12-20T21:59:36.591Z,98397.78
2018-12-20T22:02:06.171Z,98391.98
2018-12-20T22:04:35.921Z,98401.69
2018-12-20T22:07:06.240Z,98398.55
2018-12-20T22:09:35.610Z,98396.53
2018-12-20T22:12:06.514Z,98398.17
2018-12-20T22:14:36.505Z,98385.48
2018-12-20T22:17:06.057Z,98395.95
2018-12-20T22:19:35.510Z,98396.66
2018-12-20T22:22:05.715Z,98395.58
2018-12-20T22:24:35.635Z,98398.86
2018-12-20T22:27:05.011Z,98405.33
2018-12-20T22:29:34.543Z,98404.59
2018-12-20T22:32:04.276Z,98404.34
2018-12-20T22:34:34.474Z,98399.86
2018-12-20T22:37:04.662Z,98402.92
2018-12-20T22:39:34.178Z,98391.92
2018-12-20T22:42:04.223Z,98397.91
2018-12-20T22:44:34.489Z,98399.46
2018-12-20T22:47:04.499Z,98395.75
2018-12-20T22:49:34.841Z,98389.75
2018-12-20T22:52:04.750Z,98384.81
2018-12-20T22:54:35.024Z,98382.13
2018-12-20T22:57:04.332Z,98374.14
2018-12-20T22:59:33.656Z,98382.42
2018-12-20T23:02:03.658Z,98368.56
2018-12-20T23:04:33.840Z,98359.86
2018-12-20T23:07:03.221Z,98361.27
2018-12-20T23:09:33.530Z,98361.40
2018-12-20T23:12:03.505Z,98369.39
2018-12-20T23:14:33.020Z,98368.06
2018-12-20T23:17:02.923Z,98372.14
2018-12-20T23:19:32.366Z,98374.30
2018-12-20T23:22:02.523Z,98379.65
2018-12-20T23:24:32.234Z,98375.86
2018-12-20T23:27:01.930Z,98377.49
2018-12-20T23:29:31.363Z,98387.71
2018-12-20T23:32:01.160Z,98380.79
2018-12-20T23:34:30.477Z,98377.81
2018-12-20T23:36:59.770Z,98378.11
2018-12-20T23:39:29.164Z,98378.47
2018-12-20T23:41:58.672Z,98369.62
2018-12-20T23:44:28.264Z,98368.77
2018-12-20T23:46:58.450Z,98372.55
2018-12-20T23:49:28.675Z,98368.54
2018-12-20T23:51:58.045Z,98370.37
2018-12-20T23:54:28.009Z,98369.30
2018-12-20T23:56:58.066Z,98369.27
2018-12-20T23:59:28.456Z,98369.46
